createdAt,value
2018-10-06T00:00:32.315Z,70.80
2018-10-06T00:03:01.753Z,71.10
2018-10-06T00:05:31.286Z,71.00
2018-10-06T00:08:01.589Z,71.20
2018-10-06T00:10:30.919Z,71.40
2018-10-06T00:13:00.346Z,71.70
2018-10-06T00:15:29.916Z,71.90
2018-10-06T00:17:59.284Z,71.80
2018-10-06T00:20:28.630Z,72.00
2018-10-06T00:22:59.853Z,72.20
2018-10-06T00:25:29.602Z,72.40
2018-10-06T00:27:59.025Z,72.20
2018-10-06T00:30:28.399Z,72.80
2018-10-06T00:32:57.853Z,72.70
2018-10-06T00:35:27.154Z,73.10
2018-10-06T00:37:56.500Z,72.80
2018-10-06T00:40:25.830Z,72.80
2018-10-06T00:42:55.174Z,72.70
2018-10-06T00:45:24.534Z,73.10
2018-10-06T00:47:54.002Z,73.70
2018-10-06T00:50:23.354Z,73.70
2018-10-06T00:52:52.830Z,73.70
2018-10-06T00:55:22.212Z,73.90
2018-10-06T00:57:52.627Z,74.00
2018-10-06T01:00:21.971Z,74.50
2018-10-06T01:02:51.376Z,74.50
2018-10-06T01:05:20.898Z,75.10
2018-10-06T01:07:50.355Z,75.70
2018-10-06T01:10:20.894Z,74.60
2018-10-06T01:12:50.321Z,75.10
2018-10-06T01:15:19.803Z,75.70
2018-10-06T01:17:49.238Z,75.20
2018-10-06T01:20:18.692Z,75.60
2018-10-06T01:22:48.117Z,75.50
2018-10-06T01:25:18.452Z,76.10
2018-10-06T01:27:47.853Z,76.00
2018-10-06T01:30:17.501Z,75.40
2018-10-06T01:32:46.946Z,75.70
2018-10-06T01:35:16.310Z,75.20
2018-10-06T01:37:45.686Z,76.10
2018-10-06T01:40:15.070Z,76.40
2018-10-06T01:42:44.440Z,76.80
2018-10-06T01:45:13.814Z,76.40
2018-10-06T01:47:43.162Z,76.40
2018-10-06T01:50:12.512Z,76.40
2018-10-06T01:52:41.924Z,75.90
2018-10-06T01:55:11.352Z,77.00
2018-10-06T01:57:40.694Z,77.30
2018-10-06T02:00:10.086Z,77.10
2018-10-06T02:03:16.708Z,77.30
2018-10-06T02:05:46.075Z,77.30
2018-10-06T02:08:15.375Z,77.80
2018-10-06T02:10:49.024Z,78.00
2018-10-06T02:13:18.471Z,77.60
2018-10-06T02:15:47.836Z,77.70
2018-10-06T02:18:17.280Z,78.00
2018-10-06T02:20:46.743Z,78.00
2018-10-06T02:23:16.095Z,77.70
2018-10-06T02:25:45.527Z,79.10
2018-10-06T02:28:15.008Z,80.10
2018-10-06T02:30:44.336Z,78.60
2018-10-06T02:33:13.736Z,78.80
2018-10-06T02:35:44.612Z,79.10
2018-10-06T02:38:14.506Z,78.70
2018-10-06T02:40:44.322Z,80.00
2018-10-06T02:43:13.923Z,79.80
2018-10-06T02:45:43.308Z,79.40
2018-10-06T02:48:12.630Z,79.20
2018-10-06T02:50:42.120Z,79.40
2018-10-06T02:53:11.871Z,79.30
2018-10-06T02:55:41.246Z,79.60
2018-10-06T02:58:10.606Z,79.50
2018-10-06T03:00:40.075Z,79.70
2018-10-06T03:03:09.430Z,79.80
2018-10-06T03:05:38.796Z,80.10
2018-10-06T03:08:08.159Z,80.50
2018-10-06T03:10:37.564Z,80.20
2018-10-06T03:13:07.674Z,80.50
2018-10-06T03:15:37.089Z,80.90
2018-10-06T03:18:06.495Z,80.20
2018-10-06T03:20:35.945Z,80.10
2018-10-06T03:23:05.359Z,80.60
2018-10-06T03:25:34.780Z,80.50
2018-10-06T03:28:04.182Z,80.50
2018-10-06T03:30:33.543Z,81.50
2018-10-06T03:33:02.896Z,80.70
2018-10-06T03:35:32.294Z,80.70
2018-10-06T03:38:01.708Z,80.80
2018-10-06T03:40:31.214Z,81.00
2018-10-06T03:43:00.674Z,81.40
2018-10-06T03:52:36.806Z,82.00
2018-10-06T03:55:06.413Z,81.60
2018-10-06T03:57:35.852Z,82.20
2018-10-06T04:00:05.545Z,81.80
2018-10-06T04:02:35.156Z,82.00
2018-10-06T04:05:04.962Z,81.70
2018-10-06T04:07:34.599Z,81.90
2018-10-06T04:10:03.959Z,82.30
2018-10-06T04:12:33.324Z,81.90
2018-10-06T04:15:03.897Z,81.90
2018-10-06T04:17:33.408Z,82.20
2018-10-06T04:20:03.493Z,82.20
2018-10-06T04:22:32.935Z,82.20
2018-10-06T04:25:02.346Z,82.00
2018-10-06T04:27:31.791Z,82.30
2018-10-06T04:30:01.284Z,82.50
2018-10-06T04:32:30.685Z,81.90
2018-10-06T04:35:00.046Z,82.50
2018-10-06T04:37:29.426Z,82.20
2018-10-06T04:39:58.785Z,82.00
2018-10-06T04:42:28.171Z,81.30
2018-10-06T04:44:57.454Z,81.40
2018-10-06T04:47:26.832Z,82.30
2018-10-06T04:49:56.134Z,81.20
2018-10-06T04:52:26.316Z,81.70
2018-10-06T04:54:55.622Z,81.30
2018-10-06T04:57:24.970Z,81.80
2018-10-06T04:59:54.438Z,82.10
2018-10-06T05:02:23.814Z,82.30
2018-10-06T05:04:53.138Z,81.00
2018-10-06T05:07:22.478Z,82.90
2018-10-06T05:09:51.814Z,82.20
2018-10-06T05:12:21.118Z,81.70
2018-10-06T05:14:50.570Z,82.40
2018-10-06T05:17:20.187Z,82.00
2018-10-06T05:19:49.526Z,82.30
2018-10-06T05:22:18.849Z,81.00
2018-10-06T05:24:48.112Z,83.20
2018-10-06T05:27:17.514Z,82.10
2018-10-06T05:29:46.854Z,82.30
2018-10-06T05:32:16.194Z,82.60
2018-10-06T05:34:45.574Z,81.60
2018-10-06T05:37:14.846Z,81.40
2018-10-06T05:39:44.146Z,82.00
2018-10-06T05:42:13.474Z,81.90
2018-10-06T05:44:42.858Z,82.10
2018-10-06T05:47:12.166Z,81.20
2018-10-06T05:49:42.006Z,81.60
2018-10-06T05:52:11.410Z,81.20
2018-10-06T05:54:40.847Z,81.40
2018-10-06T05:57:10.193Z,81.10
2018-10-06T05:59:39.528Z,81.10
2018-10-06T06:02:08.920Z,81.00
2018-10-06T06:04:38.245Z,80.60
2018-10-06T06:07:07.614Z,80.40
2018-10-06T06:09:37.026Z,80.00
2018-10-06T06:12:06.488Z,80.20
2018-10-06T06:14:35.875Z,80.10
2018-10-06T06:17:05.318Z,79.70
2018-10-06T06:19:35.794Z,80.00
2018-10-06T06:22:05.225Z,79.70
2018-10-06T06:24:34.567Z,79.60
2018-10-06T06:27:03.982Z,79.40
2018-10-06T06:29:33.308Z,79.20
2018-10-06T06:32:02.814Z,79.10
2018-10-06T06:34:32.110Z,79.10
2018-10-06T06:37:01.497Z,79.10
2018-10-06T06:39:31.158Z,78.80
2018-10-06T06:42:00.586Z,78.90
2018-10-06T06:44:30.232Z,78.60
2018-10-06T06:46:59.437Z,78.30
2018-10-06T06:49:28.915Z,78.20
2018-10-06T06:51:59.180Z,78.20
2018-10-06T06:54:28.518Z,77.70
2018-10-06T06:56:57.775Z,77.40
2018-10-06T06:59:27.121Z,77.20
2018-10-06T07:01:56.633Z,77.00
2018-10-06T07:04:26.055Z,77.00
2018-10-06T07:06:55.490Z,76.80
2018-10-06T07:09:24.944Z,76.80
2018-10-06T07:11:54.357Z,76.90
2018-10-06T07:14:23.728Z,76.00
2018-10-06T07:16:53.328Z,76.00
2018-10-06T07:19:22.674Z,75.70
2018-10-06T07:21:53.018Z,75.80
2018-10-06T07:24:22.419Z,75.40
2018-10-06T07:26:51.757Z,74.80
2018-10-06T07:29:21.150Z,74.20
2018-10-06T07:31:50.546Z,74.20
2018-10-06T07:34:19.914Z,74.00
2018-10-06T07:36:51.094Z,74.20
2018-10-06T07:39:20.538Z,73.10
2018-10-06T07:41:49.984Z,72.70
2018-10-06T07:44:19.385Z,73.00
2018-10-06T07:46:48.816Z,72.30
2018-10-06T07:49:18.397Z,71.90
2018-10-06T07:51:47.730Z,72.20
2018-10-06T07:54:17.334Z,72.00
2018-10-06T07:56:46.854Z,72.10
2018-10-06T07:59:16.282Z,70.80
2018-10-06T08:01:45.702Z,70.60
2018-10-06T08:04:15.147Z,70.80
2018-10-06T08:06:44.495Z,70.10
2018-10-06T08:09:13.857Z,69.30
2018-10-06T08:11:43.286Z,69.10
2018-10-06T08:14:12.646Z,68.00
2018-10-06T08:16:42.113Z,68.00
2018-10-06T08:19:11.518Z,67.00
2018-10-06T08:21:40.952Z,66.30
2018-10-06T08:27:42.591Z,65.20
2018-10-06T08:30:11.964Z,62.40
2018-10-06T08:32:41.439Z,64.90
2018-10-06T08:35:10.890Z,56.70
2018-10-06T08:37:40.615Z,51.10
2018-10-06T08:40:10.194Z,50.30
2018-10-06T08:42:39.840Z,49.30
2018-10-06T08:45:09.328Z,46.20
2018-10-06T08:47:39.349Z,42.10
2018-10-06T08:50:09.334Z,42.60
2018-10-06T08:52:41.474Z,42.20
2018-10-06T08:55:11.148Z,42.10
2018-10-06T08:57:42.066Z,37.30
2018-10-06T09:00:11.730Z,39.00
2018-10-06T09:02:41.102Z,39.50
2018-10-06T09:05:10.532Z,35.10
2018-10-06T09:07:40.146Z,37.80
2018-10-06T09:10:10.276Z,35.20
2018-10-06T09:12:39.669Z,33.70
2018-10-06T09:15:09.379Z,34.80
2018-10-06T09:17:38.990Z,35.30
2018-10-06T09:20:08.520Z,33.70
2018-10-06T09:22:38.440Z,35.00
2018-10-06T09:25:08.342Z,34.10
2018-10-06T09:27:39.374Z,35.30
2018-10-06T09:30:08.875Z,35.10
2018-10-06T09:36:23.178Z,32.40
2018-10-06T09:42:37.334Z,33.90
2018-10-06T09:45:06.481Z,36.10
2018-10-06T09:47:35.803Z,34.70
2018-10-06T09:50:05.110Z,34.30
2018-10-06T09:52:34.418Z,33.00
2018-10-06T10:28:09.334Z,31.80
2018-10-06T10:30:39.430Z,31.90
2018-10-06T10:33:09.740Z,32.70
2018-10-06T10:35:39.159Z,31.70
2018-10-06T10:38:08.575Z,34.20
2018-10-06T10:40:38.055Z,33.40
2018-10-06T10:43:07.494Z,33.30
2018-10-06T10:45:36.955Z,33.70
2018-10-06T10:48:07.099Z,32.60
2018-10-06T10:50:36.444Z,34.10
2018-10-06T10:53:06.258Z,33.30
2018-10-06T10:55:35.723Z,34.50
2018-10-06T10:58:05.251Z,33.00
2018-10-06T11:00:47.447Z,33.80
2018-10-06T11:03:17.363Z,33.30
2018-10-06T11:05:46.714Z,34.00
2018-10-06T11:08:16.096Z,34.70
2018-10-06T11:10:45.475Z,34.90
2018-10-06T11:13:14.854Z,35.40
2018-10-06T11:15:44.256Z,35.90
2018-10-06T11:18:13.600Z,36.10
2018-10-06T11:20:43.018Z,36.80
2018-10-06T11:23:12.511Z,37.40
2018-10-06T11:25:42.021Z,37.50
2018-10-06T11:28:11.589Z,37.90
2018-10-06T11:30:41.023Z,38.60
2018-10-06T11:33:10.415Z,39.00
2018-10-06T11:35:39.928Z,39.60
2018-10-06T11:38:10.453Z,39.20
2018-10-06T11:40:40.862Z,40.00
2018-10-06T11:43:10.418Z,40.60
2018-10-06T11:45:40.104Z,41.20
2018-10-06T11:48:09.964Z,41.40
2018-10-06T11:50:39.476Z,41.80
2018-10-06T11:53:09.125Z,41.50
2018-10-06T11:55:38.589Z,41.70
2018-10-06T11:58:08.065Z,40.50
2018-10-06T12:00:37.507Z,40.80
2018-10-06T12:03:07.020Z,41.10
2018-10-06T12:05:37.258Z,42.10
2018-10-06T12:08:06.598Z,41.70
2018-10-06T12:10:35.982Z,42.00
2018-10-06T12:13:05.424Z,42.20
2018-10-06T12:15:34.890Z,42.20
2018-10-06T12:18:05.420Z,41.50
2018-10-06T12:20:34.841Z,41.30
2018-10-06T12:23:04.166Z,41.50
2018-10-06T12:25:33.680Z,42.00
2018-10-06T12:28:03.614Z,41.50
2018-10-06T12:30:33.158Z,41.00
2018-10-06T12:33:02.780Z,41.40
2018-10-06T12:35:32.418Z,41.70
2018-10-06T12:38:02.677Z,41.60
2018-10-06T12:40:32.151Z,42.60
2018-10-06T12:43:02.490Z,41.80
2018-10-06T12:45:31.854Z,42.20
2018-10-06T12:48:01.318Z,42.20
2018-10-06T12:50:30.698Z,42.80
2018-10-06T12:53:00.114Z,42.00
2018-10-06T12:55:29.957Z,42.70
2018-10-06T12:57:59.534Z,43.20
2018-10-06T13:00:28.879Z,42.50
2018-10-06T13:02:58.232Z,43.20
2018-10-06T13:05:27.656Z,43.30
2018-10-06T13:07:57.868Z,43.30
2018-10-06T13:10:27.284Z,43.80
2018-10-06T13:12:56.558Z,43.80
2018-10-06T13:15:25.912Z,43.40
2018-10-06T13:17:55.307Z,43.00
2018-10-06T13:20:24.715Z,43.50
2018-10-06T13:22:54.131Z,43.80
2018-10-06T13:25:23.622Z,44.50
2018-10-06T13:27:53.126Z,43.90
2018-10-06T13:30:22.625Z,44.20
2018-10-06T13:32:52.957Z,43.90
2018-10-06T13:35:22.797Z,44.00
2018-10-06T13:37:52.134Z,44.90
2018-10-06T13:40:21.510Z,44.60
2018-10-06T13:42:51.615Z,44.70
2018-10-06T13:45:21.068Z,45.00
2018-10-06T13:47:50.440Z,45.00
2018-10-06T13:50:20.244Z,45.10
2018-10-06T13:52:49.822Z,45.00
2018-10-06T13:55:19.709Z,44.90
2018-10-06T13:57:49.232Z,45.20
2018-10-06T14:00:18.700Z,44.70
2018-10-06T14:02:48.306Z,45.00
2018-10-06T14:05:18.369Z,45.40
2018-10-06T14:07:47.870Z,45.40
2018-10-06T14:10:18.106Z,45.20
2018-10-06T14:12:47.528Z,45.20
2018-10-06T14:15:16.966Z,45.00
2018-10-06T14:17:46.408Z,45.10
2018-10-06T14:20:15.810Z,44.80
2018-10-06T14:22:45.136Z,44.70
2018-10-06T14:25:14.963Z,44.70
2018-10-06T14:27:44.410Z,44.70
2018-10-06T14:30:13.948Z,45.20
2018-10-06T14:32:43.582Z,45.00
2018-10-06T14:35:17.364Z,45.00
2018-10-06T14:37:47.044Z,45.00
2018-10-06T14:40:17.306Z,45.10
2018-10-06T14:42:47.053Z,45.20
2018-10-06T14:45:16.773Z,45.50
2018-10-06T14:47:47.825Z,45.90
2018-10-06T14:50:17.866Z,46.10
2018-10-06T14:52:47.195Z,46.50
2018-10-06T14:55:16.574Z,46.70
2018-10-06T14:57:59.157Z,46.80
2018-10-06T15:00:28.539Z,47.00
2018-10-06T15:02:57.895Z,47.10
2018-10-06T15:05:27.264Z,48.20
2018-10-06T15:07:56.585Z,47.70
2018-10-06T15:10:25.893Z,48.20
2018-10-06T15:12:55.300Z,48.70
2018-10-06T15:15:24.694Z,48.40
2018-10-06T15:17:54.115Z,48.80
2018-10-06T15:20:23.795Z,49.20
2018-10-06T15:22:53.694Z,50.20
2018-10-06T15:25:23.075Z,50.30
2018-10-06T15:28:09.576Z,50.90
2018-10-06T15:30:38.970Z,50.70
2018-10-06T15:33:08.388Z,51.50
2018-10-06T15:35:37.923Z,51.30
2018-10-06T15:38:07.344Z,52.00
2018-10-06T15:40:36.749Z,52.20
2018-10-06T15:43:06.531Z,52.80
2018-10-06T15:45:35.868Z,53.60
2018-10-06T15:48:05.237Z,54.20
2018-10-06T15:50:35.239Z,53.90
2018-10-06T15:53:05.163Z,53.40
2018-10-06T15:55:34.470Z,54.00
2018-10-06T15:58:04.387Z,55.60
2018-10-06T16:00:33.856Z,54.70
2018-10-06T16:03:03.384Z,54.50
2018-10-06T16:05:32.816Z,54.80
2018-10-06T16:08:02.238Z,54.40
2018-10-06T16:10:31.746Z,55.00
2018-10-06T16:13:01.696Z,55.70
2018-10-06T16:15:31.171Z,55.60
2018-10-06T16:18:00.592Z,55.90
2018-10-06T16:20:29.991Z,56.20
2018-10-06T16:22:59.320Z,57.30
2018-10-06T16:26:03.418Z,61.20
2018-10-06T16:28:32.795Z,61.80
2018-10-06T16:31:02.294Z,61.70
2018-10-06T16:33:31.948Z,60.30
2018-10-06T16:36:02.192Z,58.80
2018-10-06T16:38:32.446Z,58.80
2018-10-06T16:41:02.404Z,60.30
2018-10-06T16:43:31.914Z,62.70
2018-10-06T16:46:01.443Z,61.30
2018-10-06T16:48:30.775Z,61.20
2018-10-06T16:51:00.249Z,61.40
2018-10-06T16:53:30.919Z,60.40
2018-10-06T16:56:00.572Z,63.70
2018-10-06T16:58:29.974Z,61.30
2018-10-06T17:00:59.399Z,64.50
2018-10-06T17:03:29.014Z,62.50
2018-10-06T17:05:58.482Z,62.40
2018-10-06T17:08:28.208Z,61.80
2018-10-06T17:10:57.554Z,62.70
2018-10-06T17:13:26.922Z,61.90
2018-10-06T17:15:56.318Z,61.20
2018-10-06T17:18:25.743Z,63.50
2018-10-06T17:20:55.081Z,62.20
2018-10-06T17:23:24.434Z,63.60
2018-10-06T17:25:53.861Z,62.70
2018-10-06T17:28:23.656Z,62.20
2018-10-06T17:30:53.120Z,63.70
2018-10-06T17:33:22.620Z,63.80
2018-10-06T17:35:52.250Z,63.00
2018-10-06T17:38:22.000Z,64.50
2018-10-06T17:40:51.667Z,63.10
2018-10-06T17:43:21.227Z,63.40
2018-10-06T17:45:50.814Z,63.40
2018-10-06T17:48:20.545Z,64.60
2018-10-06T17:50:49.981Z,63.80
2018-10-06T17:53:19.209Z,64.30
2018-10-06T17:55:48.790Z,64.30
2018-10-06T17:58:18.262Z,64.80
2018-10-06T18:00:48.241Z,64.40
2018-10-06T18:03:17.590Z,65.00
2018-10-06T18:05:47.014Z,64.20
2018-10-06T18:08:16.368Z,64.20
2018-10-06T18:10:45.794Z,63.60
2018-10-06T18:13:15.238Z,64.00
2018-10-06T18:15:44.590Z,64.00
2018-10-06T18:18:14.183Z,63.90
2018-10-06T18:20:43.714Z,64.20
2018-10-06T18:23:13.028Z,63.90
2018-10-06T18:25:42.918Z,64.00
2018-10-06T18:28:12.288Z,63.40
2018-10-06T18:30:42.644Z,63.30
2018-10-06T18:33:12.006Z,63.30
2018-10-06T18:35:41.571Z,63.40
2018-10-06T18:38:10.934Z,63.40
2018-10-06T18:40:41.474Z,62.80
2018-10-06T18:43:10.896Z,63.00
2018-10-06T18:45:40.312Z,63.00
2018-10-06T18:48:09.678Z,62.70
2018-10-06T18:50:39.186Z,62.90
2018-10-06T18:53:10.530Z,62.90
2018-10-06T18:55:39.942Z,62.70
2018-10-06T18:58:09.354Z,62.50
2018-10-06T19:00:38.794Z,62.40
2018-10-06T19:03:08.830Z,62.60
2018-10-06T19:05:38.267Z,62.60
2018-10-06T19:08:07.664Z,62.70
2018-10-06T19:10:37.254Z,62.60
2018-10-06T19:13:06.686Z,62.70
2018-10-06T19:15:36.097Z,62.70
2018-10-06T19:18:05.520Z,63.00
2018-10-06T19:20:34.932Z,63.10
2018-10-06T19:23:04.250Z,62.70
2018-10-06T19:25:33.669Z,62.60
2018-10-06T19:28:03.071Z,62.70
2018-10-06T19:30:32.520Z,63.00
2018-10-06T19:33:01.967Z,62.90
2018-10-06T19:35:31.433Z,62.50
2018-10-06T19:38:00.836Z,63.40
2018-10-06T19:40:30.441Z,63.30
2018-10-06T19:43:00.055Z,64.20
2018-10-06T19:45:29.511Z,63.20
2018-10-06T19:47:58.906Z,63.40
2018-10-06T19:50:28.307Z,64.40
2018-10-06T19:52:57.646Z,63.70
2018-10-06T19:55:27.005Z,63.80
2018-10-06T19:57:56.386Z,63.70
2018-10-06T20:00:25.833Z,64.00
2018-10-06T20:02:55.415Z,64.10
2018-10-06T20:05:25.485Z,64.10
2018-10-06T20:07:54.922Z,64.60
2018-10-06T20:10:24.362Z,64.20
2018-10-06T20:12:53.838Z,64.30
2018-10-06T20:15:23.304Z,64.70
2018-10-06T20:17:52.890Z,65.00
2018-10-06T20:20:22.268Z,66.30
2018-10-06T20:22:51.734Z,65.40
2018-10-06T20:25:21.193Z,65.40
2018-10-06T20:27:50.613Z,66.00
2018-10-06T20:30:20.408Z,66.00
2018-10-06T20:32:50.166Z,65.80
2018-10-06T20:35:20.079Z,66.20
2018-10-06T20:37:50.230Z,65.70
2018-10-06T20:40:19.697Z,66.10
2018-10-06T20:42:49.037Z,66.40
2018-10-06T20:45:18.683Z,66.20
2018-10-06T20:47:48.054Z,66.40
2018-10-06T20:50:17.468Z,66.50
2018-10-06T20:52:46.942Z,67.00
2018-10-06T20:55:16.363Z,67.10
2018-10-06T20:57:45.776Z,66.80
2018-10-06T21:00:15.339Z,67.70
2018-10-06T21:02:44.758Z,67.40
2018-10-06T21:05:14.142Z,67.70
2018-10-06T21:07:43.524Z,66.90
2018-10-06T21:10:13.494Z,67.60
2018-10-06T21:12:42.982Z,67.60
2018-10-06T21:15:12.326Z,67.60
2018-10-06T21:17:41.751Z,67.30
2018-10-06T21:20:11.162Z,68.50
2018-10-06T21:22:40.598Z,68.00
2018-10-06T21:25:10.012Z,68.50
2018-10-06T21:27:39.518Z,68.00
2018-10-06T21:30:08.977Z,68.90
2018-10-06T21:32:38.395Z,69.10
2018-10-06T21:35:07.830Z,68.80
2018-10-06T21:37:37.216Z,69.20
2018-10-06T21:40:06.660Z,67.90
2018-10-06T21:46:12.552Z,69.40
2018-10-06T21:48:41.897Z,69.40
2018-10-06T21:51:11.327Z,68.90
2018-10-06T21:53:40.723Z,69.10
2018-10-06T21:56:10.303Z,70.20
2018-10-06T21:58:42.792Z,69.50
2018-10-06T22:01:14.283Z,70.40
2018-10-06T22:03:43.715Z,69.80
2018-10-06T22:06:13.119Z,70.50
2018-10-06T22:08:42.402Z,70.60
2018-10-06T22:11:11.679Z,70.50
2018-10-06T22:13:41.176Z,71.30
2018-10-06T22:16:10.611Z,71.10
2018-10-06T22:18:40.103Z,70.90
2018-10-06T22:21:09.470Z,71.00
2018-10-06T22:23:38.835Z,70.80
2018-10-06T22:26:08.249Z,70.80
2018-10-06T22:28:37.756Z,71.30
2018-10-06T22:31:07.289Z,71.30
2018-10-06T22:33:36.699Z,71.90
2018-10-06T22:36:06.235Z,72.60
2018-10-06T22:38:35.707Z,71.90
2018-10-06T22:41:05.533Z,71.90
2018-10-06T22:43:34.967Z,72.20
2018-10-06T22:46:04.427Z,72.30
2018-10-06T22:49:08.645Z,72.60
2018-10-06T22:51:38.039Z,73.10
2018-10-06T22:54:07.367Z,72.60
2018-10-06T22:56:36.744Z,72.90
2018-10-06T22:59:06.110Z,73.20
2018-10-06T23:01:35.434Z,73.50
2018-10-06T23:04:04.863Z,72.50
2018-10-06T23:06:34.198Z,74.00
2018-10-06T23:09:04.323Z,74.00
2018-10-06T23:11:33.648Z,74.00
2018-10-06T23:14:02.999Z,74.20
2018-10-06T23:16:32.383Z,73.40
2018-10-06T23:19:01.819Z,72.90
2018-10-06T23:21:31.978Z,74.10
2018-10-06T23:24:01.681Z,72.90
2018-10-06T23:26:31.070Z,74.10
2018-10-06T23:29:00.470Z,73.20
2018-10-06T23:31:29.841Z,73.70
2018-10-06T23:33:59.210Z,74.00
2018-10-06T23:36:28.648Z,74.40
2018-10-06T23:38:58.026Z,75.00
2018-10-06T23:41:27.387Z,76.00
2018-10-06T23:43:56.783Z,75.10
2018-10-06T23:46:26.118Z,75.00
2018-10-06T23:48:55.603Z,74.70
2018-10-06T23:51:25.059Z,75.50
2018-10-06T23:53:54.431Z,75.50
2018-10-06T23:56:23.835Z,75.80
2018-10-06T23:58:53.160Z,77.30
